sensor_id;sensor_type;location;lat;lon;timestamp;pressure;altitude;pressure_sealevel;temperature;humidity
28354;BME280;15603;50.878;8.036;2023-05-08T00:00:38;146367.16;;;13.12;100.00
28354;BME280;15603;50.878;8.036;2023-05-08T00:03:05;146358.63;;;13.08;100.00
28354;BME280;15603;50.878;8.036;2023-05-08T00:05:32;146358.63;;;13.08;100.00
28354;BME280;15603;50.878;8.036;2023-05-08T00:07:59;146305.09;;;12.86;100.00
28354;BME280;15603;50.878;8.036;2023-05-08T00:10:28;146300.25;;;12.84;100.00
28354;BME280;15603;50.878;8.036;2023-05-08T00:12:55;146318.50;;;12.91;100.00
28354;BME280;15603;50.878;8.036;2023-05-08T00:15:22;146307.50;;;12.87;100.00
28354;BME280;15603;50.878;8.036;2023-05-08T00:17:49;146305.09;;;12.86;100.00
28354;BME280;15603;50.878;8.036;2023-05-08T00:20:16;146341.63;;;13.01;100.00
28354;BME280;15603;50.878;8.036;2023-05-08T00:22:43;146334.31;;;12.98;100.00
28354;BME280;15603;50.878;8.036;2023-05-08T00:25:10;146351.34;;;13.05;100.00
28354;BME280;15603;50.878;8.036;2023-05-08T00:27:37;146331.84;;;12.97;100.00
28354;BME280;15603;50.878;8.036;2023-05-08T00:30:06;146329.44;;;12.96;100.00
28354;BME280;15603;50.878;8.036;2023-05-08T00:32:33;146283.19;;;12.76;100.00
28354;BME280;15603;50.878;8.036;2023-05-08T00:35:00;146285.59;;;12.77;100.00
28354;BME280;15603;50.878;8.036;2023-05-08T00:37:27;146307.50;;;12.87;100.00
28354;BME280;15603;50.878;8.036;2023-05-08T00:39:54;146344.03;;;13.02;100.00
28354;BME280;15603;50.878;8.036;2023-05-08T00:42:21;146288.03;;;12.79;100.00
28354;BME280;15603;50.878;8.036;2023-05-08T00:44:48;146309.97;;;12.88;100.00
28354;BME280;15603;50.878;8.036;2023-05-08T00:47:15;146307.50;;;12.87;100.00
28354;BME280;15603;50.878;8.036;2023-05-08T00:49:43;146305.09;;;12.86;100.00
28354;BME280;15603;50.878;8.036;2023-05-08T00:52:11;146306.31;;;12.86;100.00
28354;BME280;15603;50.878;8.036;2023-05-08T00:54:38;146288.03;;;12.79;100.00
28354;BME280;15603;50.878;8.036;2023-05-08T00:57:06;146283.19;;;12.76;100.00
28354;BME280;15603;50.878;8.036;2023-05-08T00:59:34;146249.06;;;12.62;100.00
28354;BME280;15603;50.878;8.036;2023-05-08T01:02:02;146275.84;;;12.73;100.00
28354;BME280;15603;50.878;8.036;2023-05-08T01:04:30;146251.53;;;12.63;100.00
28354;BME280;15603;50.878;8.036;2023-05-08T01:06:58;146249.06;;;12.62;100.00
28354;BME280;15603;50.878;8.036;2023-05-08T01:09:25;146222.28;;;12.51;100.00
28354;BME280;15603;50.878;8.036;2023-05-08T01:12:14;146219.88;;;12.50;100.00
28354;BME280;15603;50.878;8.036;2023-05-08T01:15:13;146251.53;;;12.63;100.00
28354;BME280;15603;50.878;8.036;2023-05-08T01:17:56;146184.56;;;12.35;100.00
28354;BME280;15603;50.878;8.036;2023-05-08T01:20:39;146251.53;;;12.63;100.00
28354;BME280;15603;50.878;8.036;2023-05-08T01:26:10;146245.47;;;12.61;100.00
28354;BME280;15603;50.878;8.036;2023-05-08T01:31:50;146230.81;;;12.54;100.00
28354;BME280;15603;50.878;8.036;2023-05-08T01:34:34;146219.88;;;12.50;100.00
28354;BME280;15603;50.878;8.036;2023-05-08T01:37:10;146233.28;;;12.55;100.00
28354;BME280;15603;50.878;8.036;2023-05-08T01:39:42;146218.69;;;12.49;100.00
28354;BME280;15603;50.878;8.036;2023-05-08T01:45:00;146233.28;;;12.55;100.00
28354;BME280;15603;50.878;8.036;2023-05-08T01:47:32;146159.06;;;12.24;100.00
28354;BME280;15603;50.878;8.036;2023-05-08T01:50:06;146201.63;;;12.42;100.00
28354;BME280;15603;50.878;8.036;2023-05-08T01:52:38;146180.91;;;12.33;100.00
28354;BME280;15603;50.878;8.036;2023-05-08T01:55:10;146197.97;;;12.41;100.00
28354;BME280;15603;50.878;8.036;2023-05-08T01:57:43;146162.66;;;12.26;100.00
28354;BME280;15603;50.878;8.036;2023-05-08T02:00:13;146146.88;;;12.19;100.00
28354;BME280;15603;50.878;8.036;2023-05-08T02:02:43;146161.47;;;12.25;100.00
28354;BME280;15603;50.878;8.036;2023-05-08T02:05:11;146173.66;;;12.30;100.00
28354;BME280;15603;50.878;8.036;2023-05-08T02:07:40;146151.72;;;12.21;100.00
28354;BME280;15603;50.878;8.036;2023-05-08T02:10:10;146176.06;;;12.31;100.00
28354;BME280;15603;50.878;8.036;2023-05-08T02:12:40;146171.19;;;12.29;100.00
28354;BME280;15603;50.878;8.036;2023-05-08T02:15:11;146104.31;;;12.01;100.00
28354;BME280;15603;50.878;8.036;2023-05-08T02:17:40;146161.47;;;12.25;100.00
28354;BME280;15603;50.878;8.036;2023-05-08T02:20:09;146163.91;;;12.26;100.00
28354;BME280;15603;50.878;8.036;2023-05-08T02:22:44;146171.19;;;12.29;100.00
28354;BME280;15603;50.878;8.036;2023-05-08T02:25:11;146183.38;;;12.34;100.00
28354;BME280;15603;50.878;8.036;2023-05-08T02:27:43;146159.06;;;12.24;100.00
28354;BME280;15603;50.878;8.036;2023-05-08T02:30:16;146159.06;;;12.24;100.00
28354;BME280;15603;50.878;8.036;2023-05-08T02:32:45;146151.72;;;12.21;100.00
28354;BME280;15603;50.878;8.036;2023-05-08T02:35:14;146149.28;;;12.20;100.00
28354;BME280;15603;50.878;8.036;2023-05-08T02:37:44;146129.81;;;12.12;100.00
28354;BME280;15603;50.878;8.036;2023-05-08T02:40:13;146148.06;;;12.20;100.00
28354;BME280;15603;50.878;8.036;2023-05-08T02:42:43;146106.72;;;12.02;100.00
28354;BME280;15603;50.878;8.036;2023-05-08T02:45:12;146129.81;;;12.12;100.00
28354;BME280;15603;50.878;8.036;2023-05-08T02:48:00;146134.69;;;12.14;100.00
28354;BME280;15603;50.878;8.036;2023-05-08T02:50:43;146132.28;;;12.13;100.00
28354;BME280;15603;50.878;8.036;2023-05-08T02:53:24;146095.78;;;11.97;100.00
28354;BME280;15603;50.878;8.036;2023-05-08T02:55:55;146142.00;;;12.17;100.00
28354;BME280;15603;50.878;8.036;2023-05-08T02:58:30;146112.78;;;12.05;100.00
28354;BME280;15603;50.878;8.036;2023-05-08T03:01:07;146124.97;;;12.10;100.00
28354;BME280;15603;50.878;8.036;2023-05-08T03:03:43;146139.56;;;12.16;100.00
28354;BME280;15603;50.878;8.036;2023-05-08T03:06:13;146139.56;;;12.16;100.00
28354;BME280;15603;50.878;8.036;2023-05-08T03:08:41;146100.63;;;12.00;100.00
28354;BME280;15603;50.878;8.036;2023-05-08T03:11:19;146086.06;;;11.93;100.00
28354;BME280;15603;50.878;8.036;2023-05-08T03:13:48;146137.13;;;12.15;100.00
28354;BME280;15603;50.878;8.036;2023-05-08T03:16:20;146118.88;;;12.07;100.00
28354;BME280;15603;50.878;8.036;2023-05-08T03:18:55;146124.97;;;12.10;100.00
28354;BME280;15603;50.878;8.036;2023-05-08T03:21:28;146120.09;;;12.08;100.00
28354;BME280;15603;50.878;8.036;2023-05-08T03:23:58;146110.38;;;12.04;100.00
28354;BME280;15603;50.878;8.036;2023-05-08T03:26:26;146093.31;;;11.96;100.00
28354;BME280;15603;50.878;8.036;2023-05-08T03:28:55;146093.31;;;11.96;100.00
28354;BME280;15603;50.878;8.036;2023-05-08T03:31:27;146122.56;;;12.09;100.00
28354;BME280;15603;50.878;8.036;2023-05-08T03:33:56;146054.38;;;11.80;100.00
28354;BME280;15603;50.878;8.036;2023-05-08T03:36:24;146118.88;;;12.07;100.00
28354;BME280;15603;50.878;8.036;2023-05-08T03:38:52;146103.06;;;12.01;100.00
28354;BME280;15603;50.878;8.036;2023-05-08T03:41:21;146116.44;;;12.06;100.00
28354;BME280;15603;50.878;8.036;2023-05-08T03:43:49;146089.66;;;11.95;100.00
28354;BME280;15603;50.878;8.036;2023-05-08T03:46:16;146027.59;;;11.69;100.00
28354;BME280;15603;50.878;8.036;2023-05-08T03:48:45;146087.25;;;11.94;100.00
28354;BME280;15603;50.878;8.036;2023-05-08T03:51:14;146098.19;;;11.98;100.00
28354;BME280;15603;50.878;8.036;2023-05-08T03:53:42;146110.38;;;12.04;100.00
28354;BME280;15603;50.878;8.036;2023-05-08T03:56:09;146096.97;;;11.98;100.00
28354;BME280;15603;50.878;8.036;2023-05-08T04:01:37;146107.91;;;12.03;100.00
28354;BME280;15603;50.878;8.036;2023-05-08T04:09:57;146095.78;;;11.97;100.00
28354;BME280;15603;50.878;8.036;2023-05-08T04:15:21;146101.84;;;12.00;100.00
28354;BME280;15603;50.878;8.036;2023-05-08T04:17:58;146088.47;;;11.94;100.00
28354;BME280;15603;50.878;8.036;2023-05-08T04:20:26;146088.47;;;11.94;100.00
28354;BME280;15603;50.878;8.036;2023-05-08T04:22:56;146086.06;;;11.93;100.00
28354;BME280;15603;50.878;8.036;2023-05-08T04:25:24;146081.19;;;11.91;100.00
28354;BME280;15603;50.878;8.036;2023-05-08T04:27:52;146101.84;;;12.00;100.00
28354;BME280;15603;50.878;8.036;2023-05-08T04:30:22;146103.06;;;12.01;100.00
28354;BME280;15603;50.878;8.036;2023-05-08T04:32:49;146098.19;;;11.98;100.00
28354;BME280;15603;50.878;8.036;2023-05-08T04:35:16;146096.97;;;11.98;100.00
28354;BME280;15603;50.878;8.036;2023-05-08T04:37:45;146124.97;;;12.10;100.00
28354;BME280;15603;50.878;8.036;2023-05-08T04:40:14;146110.38;;;12.04;100.00
28354;BME280;15603;50.878;8.036;2023-05-08T04:42:42;146062.91;;;11.84;100.00
28354;BME280;15603;50.878;8.036;2023-05-08T04:45:09;146081.19;;;11.91;100.00
28354;BME280;15603;50.878;8.036;2023-05-08T04:47:37;146070.16;;;11.87;100.00
28354;BME280;15603;50.878;8.036;2023-05-08T04:50:05;146083.59;;;11.92;100.00
28354;BME280;15603;50.878;8.036;2023-05-08T04:52:33;146056.78;;;11.81;100.00
28354;BME280;15603;50.878;8.036;2023-05-08T04:55:00;146103.06;;;12.01;100.00
28354;BME280;15603;50.878;8.036;2023-05-08T04:57:29;146095.78;;;11.97;100.00
28354;BME280;15603;50.878;8.036;2023-05-08T04:59:56;146124.97;;;12.10;100.00
28354;BME280;15603;50.878;8.036;2023-05-08T05:02:26;146110.38;;;12.04;100.00
28354;BME280;15603;50.878;8.036;2023-05-08T05:04:54;146100.63;;;12.00;100.00
28354;BME280;15603;50.878;8.036;2023-05-08T05:07:24;146081.19;;;11.91;100.00
28354;BME280;15603;50.878;8.036;2023-05-08T05:09:52;146115.22;;;12.06;100.00
28354;BME280;15603;50.878;8.036;2023-05-08T05:12:19;146066.50;;;11.85;100.00
28354;BME280;15603;50.878;8.036;2023-05-08T05:14:47;146103.06;;;12.01;100.00
28354;BME280;15603;50.878;8.036;2023-05-08T05:17:14;146101.84;;;12.00;100.00
28354;BME280;15603;50.878;8.036;2023-05-08T05:19:41;146111.56;;;12.04;100.00
28354;BME280;15603;50.878;8.036;2023-05-08T05:22:08;146122.56;;;12.09;100.00
28354;BME280;15603;50.878;8.036;2023-05-08T05:24:35;146117.69;;;12.07;100.00
28354;BME280;15603;50.878;8.036;2023-05-08T05:27:02;146111.56;;;12.04;100.00
28354;BME280;15603;50.878;8.036;2023-05-08T05:29:30;146122.56;;;12.09;100.00
28354;BME280;15603;50.878;8.036;2023-05-08T05:31:58;146092.13;;;11.96;100.00
28354;BME280;15603;50.878;8.036;2023-05-08T05:34:25;146060.44;;;11.83;100.00
28354;BME280;15603;50.878;8.036;2023-05-08T05:36:52;146098.19;;;11.98;100.00
28354;BME280;15603;50.878;8.036;2023-05-08T05:39:19;146098.19;;;11.98;100.00
28354;BME280;15603;50.878;8.036;2023-05-08T05:41:47;146073.81;;;11.88;100.00
28354;BME280;15603;50.878;8.036;2023-05-08T05:44:14;146039.75;;;11.74;100.00
28354;BME280;15603;50.878;8.036;2023-05-08T05:46:42;146100.63;;;12.00;100.00
28354;BME280;15603;50.878;8.036;2023-05-08T05:49:10;146101.84;;;12.00;100.00
28354;BME280;15603;50.878;8.036;2023-05-08T05:51:38;146121.28;;;12.08;100.00
28354;BME280;15603;50.878;8.036;2023-05-08T05:54:05;146132.28;;;12.13;100.00
28354;BME280;15603;50.878;8.036;2023-05-08T05:56:33;146098.19;;;11.98;100.00
28354;BME280;15603;50.878;8.036;2023-05-08T05:59:00;146068.97;;;11.86;100.00
28354;BME280;15603;50.878;8.036;2023-05-08T06:01:28;146128.63;;;12.11;100.00
28354;BME280;15603;50.878;8.036;2023-05-08T06:03:55;146138.34;;;12.15;100.00
28354;BME280;15603;50.878;8.036;2023-05-08T06:06:23;146110.38;;;12.04;100.00
28354;BME280;15603;50.878;8.036;2023-05-08T06:08:50;146156.59;;;12.23;100.00
28354;BME280;15603;50.878;8.036;2023-05-08T06:11:18;146137.13;;;12.15;100.00
28354;BME280;15603;50.878;8.036;2023-05-08T06:13:45;146145.66;;;12.18;100.00
28354;BME280;15603;50.878;8.036;2023-05-08T06:16:14;146168.78;;;12.28;100.00
28354;BME280;15603;50.878;8.036;2023-05-08T06:18:41;146154.19;;;12.22;100.00
28354;BME280;15603;50.878;8.036;2023-05-08T06:21:09;146166.31;;;12.27;100.00
28354;BME280;15603;50.878;8.036;2023-05-08T06:23:36;146148.06;;;12.20;100.00
28354;BME280;15603;50.878;8.036;2023-05-08T06:26:03;146180.91;;;12.33;100.00
28354;BME280;15603;50.878;8.036;2023-05-08T06:28:30;146212.56;;;12.47;100.00
28354;BME280;15603;50.878;8.036;2023-05-08T06:30:57;146210.16;;;12.46;100.00
28354;BME280;15603;50.878;8.036;2023-05-08T06:33:24;146222.28;;;12.51;100.00
28354;BME280;15603;50.878;8.036;2023-05-08T06:35:53;146238.16;;;12.57;100.00
28354;BME280;15603;50.878;8.036;2023-05-08T06:38:20;146213.81;;;12.47;100.00
28354;BME280;15603;50.878;8.036;2023-05-08T06:40:48;146253.94;;;12.64;100.00
28354;BME280;15603;50.878;8.036;2023-05-08T06:43:16;146262.47;;;12.68;100.00
28354;BME280;15603;50.878;8.036;2023-05-08T06:45:43;146232.06;;;12.55;100.00
28354;BME280;15603;50.878;8.036;2023-05-08T06:48:11;146217.44;;;12.49;100.00
28354;BME280;15603;50.878;8.036;2023-05-08T06:50:39;146278.31;;;12.74;100.00
28354;BME280;15603;50.878;8.036;2023-05-08T06:53:06;146275.84;;;12.73;100.00
28354;BME280;15603;50.878;8.036;2023-05-08T06:55:33;146292.91;;;12.81;100.00
28354;BME280;15603;50.878;8.036;2023-05-08T06:58:00;146305.09;;;12.86;100.00
28354;BME280;15603;50.878;8.036;2023-05-08T07:00:27;146309.97;;;12.88;100.00
28354;BME280;15603;50.878;8.036;2023-05-08T07:02:55;146347.69;;;13.04;100.00
28354;BME280;15603;50.878;8.036;2023-05-08T07:05:22;146365.97;;;13.11;100.00
28354;BME280;15603;50.878;8.036;2023-05-08T07:07:49;146295.31;;;12.82;100.00
28354;BME280;15603;50.878;8.036;2023-05-08T07:10:16;146372.03;;;13.14;100.00
28354;BME280;15603;50.878;8.036;2023-05-08T07:12:45;146348.91;;;13.04;100.00
28354;BME280;15603;50.878;8.036;2023-05-08T07:15:12;146379.34;;;13.17;100.00
28354;BME280;15603;50.878;8.036;2023-05-08T07:17:52;146364.75;;;13.11;100.00
28354;BME280;15603;50.878;8.036;2023-05-08T07:20:19;146292.91;;;12.81;100.00
28354;BME280;15603;50.878;8.036;2023-05-08T07:22:47;146368.38;;;13.12;100.00
28354;BME280;15603;50.878;8.036;2023-05-08T07:25:15;146336.75;;;12.99;100.00
28354;BME280;15603;50.878;8.036;2023-05-08T07:27:42;146330.63;;;12.96;100.00
28354;BME280;15603;50.878;8.036;2023-05-08T07:30:09;146320.91;;;12.92;100.00
28354;BME280;15603;50.878;8.036;2023-05-08T07:32:37;146342.84;;;13.02;100.00
28354;BME280;15603;50.878;8.036;2023-05-08T07:35:06;146408.56;;;13.29;100.00
28354;BME280;15603;50.878;8.036;2023-05-08T07:37:40;146412.28;;;13.31;100.00
28354;BME280;15603;50.878;8.036;2023-05-08T07:40:07;146440.28;;;13.43;100.00
28354;BME280;15603;50.878;8.036;2023-05-08T07:42:41;146482.94;;;13.61;100.00
28354;BME280;15603;50.878;8.036;2023-05-08T07:45:09;146481.69;;;13.60;100.00
28354;BME280;15603;50.878;8.036;2023-05-08T07:47:38;146452.47;;;13.48;100.00
28354;BME280;15603;50.878;8.036;2023-05-08T07:50:13;146529.22;;;13.80;100.00
28354;BME280;15603;50.878;8.036;2023-05-08T07:52:41;146480.47;;;13.60;100.00
28354;BME280;15603;50.878;8.036;2023-05-08T07:55:08;146478.03;;;13.59;100.00
28354;BME280;15603;50.878;8.036;2023-05-08T07:57:36;146482.94;;;13.61;100.00
28354;BME280;15603;50.878;8.036;2023-05-08T08:00:05;146507.28;;;13.71;100.00
28354;BME280;15603;50.878;8.036;2023-05-08T08:02:39;146445.16;;;13.45;100.00
28354;BME280;15603;50.878;8.036;2023-05-08T08:05:07;146448.81;;;13.46;100.00
28354;BME280;15603;50.878;8.036;2023-05-08T08:07:34;146402.50;;;13.27;100.00
28354;BME280;15603;50.878;8.036;2023-05-08T08:10:02;146508.47;;;13.71;100.00
28354;BME280;15603;50.878;8.036;2023-05-08T08:12:30;146541.38;;;13.85;100.00
28354;BME280;15603;50.878;8.036;2023-05-08T08:14:57;146564.50;;;13.95;100.00
28354;BME280;15603;50.878;8.036;2023-05-08T08:17:24;146558.44;;;13.92;100.00
28354;BME280;15603;50.878;8.036;2023-05-08T08:19:55;146592.56;;;14.07;100.00
28354;BME280;15603;50.878;8.036;2023-05-08T08:22:22;146557.22;;;13.92;100.00
28354;BME280;15603;50.878;8.036;2023-05-08T08:24:50;146605.94;;;14.12;100.00
28354;BME280;15603;50.878;8.036;2023-05-08T08:27:21;146524.34;;;13.78;100.00
28354;BME280;15603;50.878;8.036;2023-05-08T08:29:48;146592.56;;;14.07;100.00
28354;BME280;15603;50.878;8.036;2023-05-08T08:32:18;146641.28;;;14.27;100.00
28354;BME280;15603;50.878;8.036;2023-05-08T08:34:45;146640.06;;;14.27;100.00
28354;BME280;15603;50.878;8.036;2023-05-08T08:37:12;146670.53;;;14.40;100.00
28354;BME280;15603;50.878;8.036;2023-05-08T08:39:39;146736.38;;;14.67;100.00
28354;BME280;15603;50.878;8.036;2023-05-08T08:42:07;146788.78;;;14.89;100.00
28354;BME280;15603;50.878;8.036;2023-05-08T08:44:34;146759.53;;;14.77;100.00
28354;BME280;15603;50.878;8.036;2023-05-08T08:47:04;146775.41;;;14.84;100.00
28354;BME280;15603;50.878;8.036;2023-05-08T08:49:34;146848.56;;;15.15;100.00
28354;BME280;15603;50.878;8.036;2023-05-08T08:52:06;146887.53;;;15.31;100.00
28354;BME280;15603;50.878;8.036;2023-05-08T08:54:37;146850.97;;;15.16;100.00
28354;BME280;15603;50.878;8.036;2023-05-08T08:57:07;146946.09;;;15.56;100.00
28354;BME280;15603;50.878;8.036;2023-05-08T08:59:37;146910.72;;;15.41;100.00
28354;BME280;15603;50.878;8.036;2023-05-08T09:02:11;146929.00;;;15.48;100.00
28354;BME280;15603;50.878;8.036;2023-05-08T09:04:43;146926.59;;;15.47;100.00
28354;BME280;15603;50.878;8.036;2023-05-08T09:07:11;146980.22;;;15.70;100.00
28354;BME280;15603;50.878;8.036;2023-05-08T09:09:39;147081.50;;;16.13;100.00
28354;BME280;15603;50.878;8.036;2023-05-08T09:12:11;147177.88;;;16.53;100.00
28354;BME280;15603;50.878;8.036;2023-05-08T09:14:39;147246.28;;;16.82;100.00
28354;BME280;15603;50.878;8.036;2023-05-08T09:17:06;147219.41;;;16.71;100.00
28354;BME280;15603;50.878;8.036;2023-05-08T09:19:33;147162.03;;;16.46;100.00
28354;BME280;15603;50.878;8.036;2023-05-08T09:22:02;147214.50;;;16.68;100.00
28354;BME280;15603;50.878;8.036;2023-05-08T09:27:27;147184.00;;;16.56;100.00
28354;BME280;15603;50.878;8.036;2023-05-08T09:30:10;147170.59;;;16.50;100.00
28354;BME280;15603;50.878;8.036;2023-05-08T09:32:40;147131.53;;;16.34;100.00
28354;BME280;15603;50.878;8.036;2023-05-08T09:35:09;147142.53;;;16.38;100.00
28354;BME280;15603;50.878;8.036;2023-05-08T09:37:41;147140.06;;;16.37;100.00
28354;BME280;15603;50.878;8.036;2023-05-08T09:40:13;147153.50;;;16.43;100.00
28354;BME280;15603;50.878;8.036;2023-05-08T09:42:40;147135.19;;;16.35;100.00
28354;BME280;15603;50.878;8.036;2023-05-08T09:45:08;147193.78;;;16.60;100.00
28354;BME280;15603;50.878;8.036;2023-05-08T09:47:35;147177.88;;;16.53;100.00
28354;BME280;15603;50.878;8.036;2023-05-08T09:50:08;147162.03;;;16.46;100.00
28354;BME280;15603;50.878;8.036;2023-05-08T09:52:37;147263.38;;;16.89;100.00
28354;BME280;15603;50.878;8.036;2023-05-08T09:57:35;147356.13;;;17.28;100.00
28354;BME280;15603;50.878;8.036;2023-05-08T10:00:06;147270.72;;;16.92;100.00
28354;BME280;15603;50.878;8.036;2023-05-08T10:02:38;147309.75;;;17.08;100.00
28354;BME280;15603;50.878;8.036;2023-05-08T10:05:32;147319.50;;;17.13;100.00
28354;BME280;15603;50.878;8.036;2023-05-08T10:08:20;147192.56;;;16.59;100.00
28354;BME280;15603;50.878;8.036;2023-05-08T10:10:48;147234.06;;;16.77;100.00
28354;BME280;15603;50.878;8.036;2023-05-08T10:13:15;147223.03;;;16.72;100.00
28354;BME280;15603;50.878;8.036;2023-05-08T10:15:43;147225.50;;;16.73;100.00
28354;BME280;15603;50.878;8.036;2023-05-08T10:18:10;147280.47;;;16.96;100.00
28354;BME280;15603;50.878;8.036;2023-05-08T10:20:39;147314.63;;;17.11;100.00
28354;BME280;15603;50.878;8.036;2023-05-08T10:23:10;147324.41;;;17.15;100.00
28354;BME280;15603;50.878;8.036;2023-05-08T10:25:55;147314.63;;;17.11;100.00
28354;BME280;15603;50.878;8.036;2023-05-08T10:28:39;147304.88;;;17.06;100.00
28354;BME280;15603;50.878;8.036;2023-05-08T10:31:10;147323.19;;;17.14;100.00
28354;BME280;15603;50.878;8.036;2023-05-08T10:33:39;147362.28;;;17.31;100.00
28354;BME280;15603;50.878;8.036;2023-05-08T10:36:07;147459.94;;;17.72;100.00
28354;BME280;15603;50.878;8.036;2023-05-08T10:38:36;147429.41;;;17.59;100.00
28354;BME280;15603;50.878;8.036;2023-05-08T10:41:04;147370.81;;;17.34;99.06
28354;BME280;15603;50.878;8.036;2023-05-08T10:43:32;147419.63;;;17.55;100.00
28354;BME280;15603;50.878;8.036;2023-05-08T10:46:08;147578.47;;;18.21;99.18
28354;BME280;15603;50.878;8.036;2023-05-08T10:54:25;147527.16;;;18.00;98.41
28354;BME280;15603;50.878;8.036;2023-05-08T10:57:10;147635.84;;;18.45;99.48
28354;BME280;15603;50.878;8.036;2023-05-08T10:59:37;147695.78;;;18.71;98.10
28354;BME280;15603;50.878;8.036;2023-05-08T11:02:10;147661.53;;;18.56;96.41
28354;BME280;15603;50.878;8.036;2023-05-08T11:04:37;147687.22;;;18.67;97.40
28354;BME280;15603;50.878;8.036;2023-05-08T11:07:05;147685.97;;;18.67;96.94
28354;BME280;15603;50.878;8.036;2023-05-08T11:12:27;147721.44;;;18.81;95.01
28354;BME280;15603;50.878;8.036;2023-05-08T11:15:01;147692.09;;;18.69;95.62
28354;BME280;15603;50.878;8.036;2023-05-08T11:17:28;147706.75;;;18.75;92.03
28354;BME280;15603;50.878;8.036;2023-05-08T11:20:00;147727.53;;;18.84;96.77
28354;BME280;15603;50.878;8.036;2023-05-08T11:22:35;147840.00;;;19.31;93.87
28354;BME280;15603;50.878;8.036;2023-05-08T11:25:10;147909.69;;;19.60;92.61
28354;BME280;15603;50.878;8.036;2023-05-08T11:30:37;147737.38;;;18.88;92.24
28354;BME280;15603;50.878;8.036;2023-05-08T11:35:55;147857.16;;;19.38;90.72
28354;BME280;15603;50.878;8.036;2023-05-08T11:38:32;147886.47;;;19.51;90.02
28354;BME280;15603;50.878;8.036;2023-05-08T11:41:08;147818.00;;;19.22;93.26
28354;BME280;15603;50.878;8.036;2023-05-08T11:44:03;147829.03;;;19.27;93.64
28354;BME280;15603;50.878;8.036;2023-05-08T11:46:49;147777.66;;;19.05;91.22
28354;BME280;15603;50.878;8.036;2023-05-08T11:49:19;147838.81;;;19.31;90.98
28354;BME280;15603;50.878;8.036;2023-05-08T11:51:56;147874.22;;;19.46;91.02
28354;BME280;15603;50.878;8.036;2023-05-08T11:54:28;147932.91;;;19.70;90.06
28354;BME280;15603;50.878;8.036;2023-05-08T11:56:55;147991.66;;;19.95;89.66
28354;BME280;15603;50.878;8.036;2023-05-08T11:59:23;148104.19;;;20.42;89.28
28354;BME280;15603;50.878;8.036;2023-05-08T12:01:50;148116.41;;;20.47;88.46
28354;BME280;15603;50.878;8.036;2023-05-08T12:04:20;148049.16;;;20.19;85.42
28354;BME280;15603;50.878;8.036;2023-05-08T12:06:48;148065.03;;;20.26;87.82
28354;BME280;15603;50.878;8.036;2023-05-08T12:09:17;148076.03;;;20.30;86.49
28354;BME280;15603;50.878;8.036;2023-05-08T12:11:46;147974.53;;;19.88;88.38
28354;BME280;15603;50.878;8.036;2023-05-08T12:14:16;147990.47;;;19.94;87.36
28354;BME280;15603;50.878;8.036;2023-05-08T12:16:43;147923.16;;;19.66;87.46
28354;BME280;15603;50.878;8.036;2023-05-08T12:19:12;147898.69;;;19.56;90.61
28354;BME280;15603;50.878;8.036;2023-05-08T12:21:48;147858.34;;;19.39;87.08
28354;BME280;15603;50.878;8.036;2023-05-08T12:24:16;147803.34;;;19.16;88.25
28354;BME280;15603;50.878;8.036;2023-05-08T12:26:53;147869.34;;;19.43;89.93
28354;BME280;15603;50.878;8.036;2023-05-08T12:29:21;147906.00;;;19.59;89.58
28354;BME280;15603;50.878;8.036;2023-05-08T12:31:49;147939.09;;;19.73;89.13
28354;BME280;15603;50.878;8.036;2023-05-08T12:34:16;147975.78;;;19.88;88.43
28354;BME280;15603;50.878;8.036;2023-05-08T12:36:44;147909.69;;;19.60;89.38
28354;BME280;15603;50.878;8.036;2023-05-08T12:39:15;147969.66;;;19.86;89.27
28354;BME280;15603;50.878;8.036;2023-05-08T12:41:51;147979.41;;;19.90;86.24
28354;BME280;15603;50.878;8.036;2023-05-08T12:44:21;147947.63;;;19.76;88.80
28354;BME280;15603;50.878;8.036;2023-05-08T12:46:49;147880.38;;;19.48;89.74
28354;BME280;15603;50.878;8.036;2023-05-08T12:49:28;147876.69;;;19.47;88.51
28354;BME280;15603;50.878;8.036;2023-05-08T12:52:11;147862.03;;;19.40;89.73
28354;BME280;15603;50.878;8.036;2023-05-08T12:54:40;147945.22;;;19.75;88.34
28354;BME280;15603;50.878;8.036;2023-05-08T12:57:13;147996.56;;;19.97;86.71
28354;BME280;15603;50.878;8.036;2023-05-08T12:59:41;147977.00;;;19.89;86.48
28354;BME280;15603;50.878;8.036;2023-05-08T13:02:16;148025.94;;;20.09;87.38
28354;BME280;15603;50.878;8.036;2023-05-08T13:04:44;147957.44;;;19.80;89.64
28354;BME280;15603;50.878;8.036;2023-05-08T13:07:12;148033.25;;;20.12;89.37
28354;BME280;15603;50.878;8.036;2023-05-08T13:09:39;148016.09;;;20.05;86.18
28354;BME280;15603;50.878;8.036;2023-05-08T13:12:21;148111.53;;;20.45;85.08
28354;BME280;15603;50.878;8.036;2023-05-08T13:14:48;148110.31;;;20.45;83.78
28354;BME280;15603;50.878;8.036;2023-05-08T13:17:18;148117.66;;;20.48;84.58
28354;BME280;15603;50.878;8.036;2023-05-08T13:19:45;148116.41;;;20.47;87.03
28354;BME280;15603;50.878;8.036;2023-05-08T13:22:12;148153.16;;;20.63;88.79
28354;BME280;15603;50.878;8.036;2023-05-08T13:24:39;148131.06;;;20.53;90.07
28354;BME280;15603;50.878;8.036;2023-05-08T13:27:06;148156.84;;;20.64;94.01
28354;BME280;15603;50.878;8.036;2023-05-08T13:29:33;148177.66;;;20.73;91.49
28354;BME280;15603;50.878;8.036;2023-05-08T13:32:00;148161.72;;;20.66;89.97
28354;BME280;15603;50.878;8.036;2023-05-08T13:34:27;148107.84;;;20.44;93.22
28354;BME280;15603;50.878;8.036;2023-05-08T13:36:54;148113.97;;;20.46;95.27